Página principal
METAR-TAF:

METAR-TAF

Aeroportos :

Irkutsk, Rússia

latitude: 52-16N, longitude: 104-19E, altura: 513 m

Observação actual do tempo

O boletim foi feito há 48 minutos, às 03:00 UTC
Vento 8 kt de sul, variando entre sudeste e su-sudoeste
Temperatura 5°C
Humidade 65%
Pressão 1030 hPa
Visibilidade 10 km ou mais
sem nuvens abaixo de 1500 metros e sem cumulonimbus

METAR: UIII 140300Z 18004MPS 140V200 CAVOK 05/M01 Q1030 R12/60D NOSIG RMK QFE730/0973

Hora: 11:48 (03:48 UTC)

Previsão

O boletim foi feito há 1 hora e 48 minutos, às 02:00 UTC
Previsão válida de 14 às 03 UTC a 15 às 03 UTC
Vento 6 kt de su-sudeste
Visibilidade 10 km ou mais
sem nuvens abaixo de 1500 metros e sem cumulonimbus

TAF: UIII 140200Z 1403/1503 16003MPS CAVOK

Observações e previsões do tempo de mais de 4000 aeroportos (mensagens METAR e TAF).

As estações disponíveis são os pontos amarelos e vermelhos sobre o mapa.

Mova o rato sobre o mapa para ver o nome da estação.

Depois clique no ponto para visualizar as observações e previsões meteorológicas.

Para alterar o mapa : clique nos botões verdes com uma cruz preta para aumentar o zoom; no botão verde com uma pitada de zoom; ou nas setas verdes para mapas adjacentes.


METAR-TAF: